LTFELTFD

Guest
Details From LTFE - MILAS BODRUM
To LTFD - BALIKESIR KORFEZ
Flight Number -
Tags generated
Created
Modified
Stats Distance 142 nm / 263 km
Max Altitude 7,200 ft / 2,195 m
Waypoints 3
Social Downloads 2
Likes 0
Share VATSIM

Download

Looking for another format? Having issues loading an existing format? Contact us
Advertisement - Login to hide

Notes

Basic altitude profile: - Ascent Rate: 2500ft/min - Ascent Speed: 250kts - Cruise Altitude: 35000ft - Cruise Speed: 420kts - Descent Rate: 1500ft/min - Descent Speed: 250kts Options: - Use NATs: no - Use PACOTS: no - Use low airways: yes - Use high airways: yes

Route

LTFE BERGO LTFD

ID Type Via Altitude Latitude Longitude Leg Dist Tot Dist Heading (true) Name
O LTFE APT - 0 ft / 0 m 37.25112˚ 27.66535˚ - 0 nm - MILAS BODRUM
BERGO FIX - 7,200 ft / 2,195 m 38.99889˚ 27.13278˚ 107 nm 107 nm 347° / 346° -
O LTFD APT - 0 ft / 0 m 39.55449˚ 27.01393˚ 33 nm 141 nm 351° / 351° BALIKESIR KORFEZ

Altitude Profile

Advertisement - Login to hide

LTFE

Details ICAO LTFE (BJV)
Name MILAS BODRUM
Region Turkey
Timezone Europe/Istanbul (UTC+3.0)
Stats Elevation 21 ft / 6 m (AMSL)
Location 37.251115° 27.665350°
Runways 1
Magnetic Variation 4.832° E

METAR

LTFE 151150Z 19010KT 160V220 9999 BKN035 19/10 Q1017 NOSIG

Decode

TAF

Not found

Departure Runways

ID Width Length Bearing (true) Bearing (mag) Surface Threshold Offset Overrun Length
11 148 ft / 45 m 9,786 ft / 2,983 m 106.68° 101.85° Concrete 0 ft / 0 m 208 ft / 63 m
29 148 ft / 45 m 9,786 ft / 2,983 m 286.70° 281.87° Concrete 0 ft / 0 m 201 ft / 61 m

LTFD

Details ICAO LTFD (EDO)
Name BALIKESIR KORFEZ
Region Turkey
Timezone Europe/Istanbul (UTC+3.0)
Stats Elevation 50 ft / 15 m (AMSL)
Location 39.554492° 27.013927°
Runways 1
Magnetic Variation 5.030° E

METAR

LTFD 151150Z 22011KT 9999 BKN035 18/11 Q1015

Decode

TAF

Not found

Destination Runways

ID Width Length Bearing (true) Bearing (mag) Surface Threshold Offset Overrun Length
05 98 ft / 30 m 6,830 ft / 2,082 m 53.62° 48.59° Concrete 0 ft / 0 m 191 ft / 58 m
23 98 ft / 30 m 6,830 ft / 2,082 m 233.63° 228.60° Concrete 984 ft / 300 m 191 ft / 58 m

Popular Alternatives